| time (UTC) | temp C | wind direction | speed KPH | gust KPH | rain 1hr cm | rain 24hr cm | rain mn cm | humidity % | barometer mb |
| 20260906052052 | 23 | 0.0 | 0.0 | 0.51 | 11.51 | 0.76 | 85 | ||
| 20260906051157 | 23 | 0.0 | 0.0 | 0.76 | 11.51 | 0.76 | 84 | ||
| 20260906050230 | 23 | 0.0 | 0.0 | 0.76 | 11.51 | 0.76 | 84 | ||
| 20260906044705 | 23 | 0.0 | 0.0 | 0.51 | 11.25 | 0.25 | 83 | ||
| 20260906043853 | 23 | 0.0 | 0.0 | 0.76 | 11.25 | 0.25 | 83 | ||
| 20260906042617 | 23 | 0.0 | 0.0 | 0.76 | 11.25 | 0.25 | 83 | ||
| 20260906041650 | 23 | 0.0 | 0.0 | 0.51 | 11.00 | 0.00 | 82 | ||
| 20260906040723 | 23 | 0.0 | 0.0 | 0.51 | 11.00 | 0.00 | 82 | ||
| 20260906035036 | 23 | 0.0 | 0.0 | 0.25 | 10.74 | 10.74 | 82 | ||
| 20260906034242 | 23 | 0.0 | 0.0 | 0.51 | 10.74 | 10.74 | 81 | ||
| 20260906033038 | 24 | 0.0 | 0.0 | 0.25 | 10.49 | 10.49 | 81 | ||
| 20260906032317 | 23 | 0.0 | 0.0 | 0.25 | 10.49 | 10.49 | 80 | ||
| 20260906031144 | 24 | 0.0 | 0.0 | 0.25 | 10.49 | 10.49 | 79 | ||
| 20260906030043 | 24 | 0.0 | 0.0 | 0.25 | 10.49 | 10.49 | 78 | ||
| 20260906025135 | 24 | 0.0 | 0.0 | 0.51 | 10.49 | 10.49 | 80 | ||
| 20260906024045 | 24 | 0.0 | 0.0 | 0.51 | 10.26 | 10.26 | 77 | ||
| 20260906023222 | 24 | 0.0 | 0.0 | 0.51 | 10.49 | 10.26 | 77 | ||
| 20260906022223 | 24 | 0.0 | 0.0 | 0.51 | 10.74 | 10.26 | 77 | ||
| 20260906021256 | 24 | 0.0 | 0.0 | 0.51 | 11.00 | 10.26 | 77 | ||
| 20260906020053 | 25 | 0.0 | 0.0 | 0.76 | 11.00 | 10.26 | 76 | ||
| 20260906015054 | -17 | 0.0 | 0.0 | 0.51 | 10.74 | 10.01 | |||
| 20260906014023 | 25 | 0.0 | 0.0 | 0.25 | 10.49 | 9.75 | 74 | ||
| 20260906013056 | 25 | 0.0 | 0.0 | 0.51 | 11.25 | 9.75 | 74 | ||
| 20260906012058 | 25 | 0.0 | 0.0 | 0.51 | 11.25 | 9.75 | 73 | ||
| 20260906011305 | 25 | 0.0 | 0.0 | 0.51 | 11.25 | 9.75 | 71 | ||
| 20260906005753 | 26 | 0.0 | 0.0 | 0.25 | 11.00 | 9.50 | 69 | ||
| 20260906004104 | 26 | 0.0 | 0.0 | 0.25 | 11.25 | 9.50 | 68 | ||
| 20260906003537 | 26 | 0.0 | 0.0 | 0.25 | 11.25 | 9.25 | 68 | ||
| 20260906002241 | 26 | 261 | 1.6 | 4.8 | 0.51 | 11.25 | 9.25 | 68 | |
| 20260906001108 | 26 | 276 | 1.6 | 3.2 | 0.51 | 11.51 | 9.25 | 68 | |
| 20260906000110 | 27 | 60 | 0.0 | 1.6 | 0.99 | 11.51 | 9.25 | 66 | |
| 20260905235214 | 27 | 166 | 0.0 | 1.6 | 0.99 | 11.99 | 9.25 | 66 | |
| 20260905234042 | 27 | 260 | 1.6 | 4.8 | 1.24 | 11.99 | 9.25 | 65 | |
| 20260905233146 | 28 | 243 | 3.2 | 3.2 | 1.24 | 11.76 | 8.99 | 66 | |
| 20260905232044 | 28 | 35 | 3.2 | 6.4 | 1.50 | 11.51 | 8.74 | 64 | |
| 20260905231118 | 28 | 268 | 3.2 | 4.8 | 1.75 | 11.51 | 8.74 | 61 | |
| 20260905230107 | 29 | 140 | 1.6 | 1.6 | 1.24 | 11.00 | 8.26 | 60 | |
| 20260905225152 | 30 | 258 | 1.6 | 3.2 | 1.50 | 11.51 | 8.26 | 61 | |
| 20260905224019 | 30 | 343 | 3.2 | 3.2 | 1.50 | 11.76 | 8.00 | 58 | |
| 20260905223021 | 30 | 73 | 3.2 | 6.4 | 1.24 | 11.76 | 7.75 | 57 | |
| 20260905222022 | 30 | 347 | 4.8 | 9.7 | 0.76 | 11.25 | 7.24 | 53 | |
| 20260905221023 | 31 | 43 | 3.2 | 4.8 | 0.76 | 11.25 | 7.01 | 48 | |
| 20260905220058 | 32 | 97 | 1.6 | 3.2 | 0.76 | 11.25 | 7.01 | 45 | |
| 20260905215028 | 32 | 359 | 3.2 | 4.8 | 0.51 | 11.00 | 6.76 | 41 | |
| 20260905214029 | 33 | 297 | 3.2 | 4.8 | 0.25 | 11.00 | 6.50 | 35 | |
| 20260905213205 | 34 | 65 | 6.4 | 9.7 | 0.25 | 11.00 | 6.50 | 34 | |
| 20260905212051 | 34 | 49 | 3.2 | 6.4 | 0.51 | 11.00 | 6.50 | 36 | |
| 20260905211033 | 34 | 11 | 3.2 | 4.8 | 0.25 | 11.00 | 6.25 | 35 | |
| 20260905210106 | 35 | 3 | 3.2 | 6.4 | 0.51 | 11.00 | 6.25 | 35 | |
| 20260905205036 | 34 | 248 | 1.6 | 4.8 | 0.51 | 11.00 | 6.25 | 35 | |
| 20260905204140 | 33 | 277 | 3.2 | 4.8 | 0.76 | 11.00 | 6.25 | 38 | |
| 20260905203111 | 33 | 277 | 3.2 | 4.8 | 0.99 | 11.00 | 6.25 | 38 | |
| 20260905202041 | 33 | 308 | 1.6 | 3.2 | 0.76 | 10.74 | 5.99 | 39 | |
| 20260905201043 | 33 | 245 | 1.6 | 3.2 | 1.50 | 11.00 | 5.99 | 39 | |
| 20260905200043 | 33 | 266 | 4.8 | 6.4 | 1.24 | 10.74 | 5.74 | 41 | |
| 20260905195117 | 33 | 239 | 3.2 | 4.8 | 1.24 | 11.00 | 5.74 | 43 | |
| 20260905194119 | 33 | 46 | 1.6 | 3.2 | 0.99 | 11.00 | 5.51 | 46 | |
| 20260905193048 | 32 | 210 | 1.6 | 4.8 | 0.76 | 10.74 | 5.26 | 48 | |
| 20260905192049 | 32 | 59 | 0.0 | 1.6 | 0.76 | 10.74 | 5.26 | 49 | |
| 20260905191020 | 32 | 298 | 3.2 | 4.8 | 0.00 | 10.01 | 4.50 | 55 | |
| 20260905190124 | 31 | 57 | 1.6 | 4.8 | 0.00 | 10.01 | 4.50 | 59 | |
| 20260905185022 | 30 | 73 | 1.6 | 3.2 | 0.00 | 10.01 | 4.50 | 66 | |
| 20260905184024 | 28 | 46 | 1.6 | 4.8 | 0.00 | 10.01 | 4.50 | 76 | |
| 20260905183025 | 26 | 63 | 1.6 | 4.8 | 0.25 | 10.26 | 4.50 | 84 | |
| 20260905182028 | 25 | 39 | 1.6 | 4.8 | 0.76 | 10.74 | 4.50 | 88 | |
| 20260905181101 | 25 | 78 | 0.0 | 1.6 | 0.99 | 10.74 | 4.50 | 90 | |
| 20260905175135 | 23 | 338 | 0.0 | 1.6 | 1.24 | 11.25 | 4.50 | 93 | |
| 20260905174105 | 23 | 278 | 1.6 | 3.2 | 1.24 | 11.25 | 4.50 | 94 | |
| 20260905173209 | 23 | 0.0 | 0.0 | 1.24 | 11.00 | 4.24 | 94 | ||
| 20260905172037 | 22 | 0.0 | 0.0 | 0.99 | 10.74 | 3.76 | 93 | ||
| 20260905171038 | 22 | 0.0 | 0.0 | 0.99 | 10.49 | 3.51 | 92 | ||
| 20260905170111 | 22 | 37 | 8.0 | 12.9 | 0.99 | 10.49 | 3.51 | 84 | |
| 20260905165041 | 27 | 32 | 11.3 | 19.3 | 0.76 | 10.26 | 3.25 | 59 | |
| 20260905164042 | 29 | 52 | 4.8 | 8.0 | 0.99 | 10.26 | 3.25 | 56 | |
| 20260905163044 | 30 | 49 | 8.0 | 11.3 | 0.76 | 10.01 | 3.00 | 49 | |
| 20260905162045 | 32 | 313 | 1.6 | 3.2 | 0.51 | 9.75 | 2.74 | 45 | |
| 20260905161048 | 32 | 223 | 4.8 | 8.0 | 0.25 | 9.50 | 2.49 | 45 | |
| 20260905160120 | 31 | 212 | 1.6 | 3.2 | 0.51 | 9.50 | 2.49 | 48 | |
| 20260905155050 | 31 | 0.0 | 0.0 | 0.51 | 9.50 | 2.49 | 51 | ||
| 20260905154020 | 30 | 209 | 1.6 | 4.8 | 0.25 | 9.25 | 2.26 | 55 | |
| 20260905153042 | 30 | 240 | 1.6 | 3.2 | 0.25 | 9.75 | 2.26 | 59 | |
| 20260905152023 | 28 | 208 | 1.6 | 6.4 | 0.25 | 9.75 | 2.26 | 63 | |
| 20260905151024 | 28 | 256 | 3.2 | 4.8 | 0.25 | 10.01 | 2.26 | 64 | |
| 20260905150046 | 28 | 213 | 1.6 | 1.6 | 0.00 | 9.75 | 2.01 | 65 | |
| 20260905145027 | 27 | 201 | 1.6 | 3.2 | 0.00 | 9.75 | 2.01 | 68 | |
| 20260905144031 | 27 | 273 | 0.0 | 1.6 | 0.00 | 9.75 | 2.01 | 70 | |
| 20260905143134 | 27 | 228 | 1.6 | 1.6 | 0.00 | 9.75 | 2.01 | 71 | |
| 20260905142444 | 26 | 193 | 0.0 | 1.6 | 0.00 | 9.75 | 2.01 | 73 | |
| 20260905141033 | 26 | 201 | 1.6 | 3.2 | 0.00 | 10.01 | 2.01 | 73 | |
| 20260905140035 | 26 | 259 | 1.6 | 1.6 | 0.00 | 10.01 | 2.01 | 75 | |
| 20260905135057 | -17 | 0.0 | 0.0 | 0.00 | 10.01 | 2.01 | |||
| 20260905134202 | 25 | 0.0 | 0.0 | 0.00 | 10.01 | 2.01 | 77 | ||
| 20260905133041 | 25 | 199 | 0.0 | 1.6 | 0.00 | 10.01 | 2.01 | 78 | |
| 20260905132248 | 25 | 170 | 0.0 | 1.6 | 0.00 | 10.01 | 2.01 | 79 | |
| 20260905131114 | 25 | 0.0 | 0.0 | 0.00 | 10.01 | 2.01 | 81 | ||
| 20260905130342 | 24 | 0.0 | 0.0 | 0.00 | 10.01 | 2.01 | 83 | ||
| 20260905125324 | 23 | 0.0 | 0.0 | 0.00 | 10.01 | 2.01 | 83 | ||
| 20260905124049 | -17 | 0.0 | 0.0 | 0.00 | 10.01 | 2.01 | |||
| 20260905123050 | 23 | 0.0 | 0.0 | 0.00 | 10.01 | 2.01 | 86 | ||
| 20260905122451 | 23 | 0.0 | 0.0 | 0.00 | 10.01 | 2.01 | 86 | ||
| 20260905121503 | 22 | 0.0 | 0.0 | 0.00 | 10.01 | 2.01 | 87 | ||
| 20260905115641 | 22 | 0.0 | 0.0 | 0.00 | 10.01 | 2.01 | 87 | ||
| 20260905114045 | 22 | 0.0 | 0.0 | 0.00 | 10.01 | 2.01 | 87 | ||
| 20260905113026 | 21 | 0.0 | 0.0 | 0.25 | 10.01 | 2.01 | 88 | ||
| 20260905112100 | 21 | 0.0 | 0.0 | 0.25 | 10.01 | 2.01 | 88 | ||
| 20260905111132 | 21 | 0.0 | 0.0 | 0.25 | 10.01 | 2.01 | 87 | ||
| 20260905110411 | 21 | 0.0 | 0.0 | 0.51 | 10.01 | 2.01 | 87 | ||
| 20260905105350 | 21 | 0.0 | 0.0 | 0.51 | 10.01 | 2.01 | 86 | ||
| 20260905104035 | 21 | 0.0 | 0.0 | 0.51 | 10.26 | 2.01 | 86 | ||
| 20260905103302 | 21 | 0.0 | 0.0 | 0.25 | 10.26 | 1.75 | 86 | ||
| 20260905102108 | 21 | 0.0 | 0.0 | 0.25 | 10.26 | 1.75 | 85 | ||
| 20260905101141 | 22 | 0.0 | 0.0 | 0.25 | 10.26 | 1.75 | 84 | ||
| 20260905100132 | 22 | 0.0 | 0.0 | 0.25 | 10.01 | 1.50 | 84 | ||
| 20260905095041 | 22 | 0.0 | 0.0 | 0.51 | 10.26 | 1.50 | 84 | ||
| 20260905093601 | 22 | 0.0 | 0.0 | 0.51 | 10.26 | 1.50 | 84 | ||
| 20260905092602 | 22 | 0.0 | 0.0 | 0.51 | 10.26 | 1.50 | 83 | ||
| 20260905091634 | 22 | 0.0 | 0.0 | 0.51 | 10.26 | 1.50 | 83 | ||
| 20260905091016 | 22 | 0.0 | 0.0 | 0.76 | 10.26 | 1.50 | 83 | ||
| 20260905085800 | 22 | 0.0 | 0.0 | 0.25 | 10.01 | 0.99 | 82 | ||
| 20260905084556 | 22 | 0.0 | 0.0 | 0.51 | 10.01 | 0.99 | 82 | ||
| 20260905083711 | 22 | 0.0 | 0.0 | 0.51 | 10.01 | 0.99 | 81 | ||
| 20260905082540 | 22 | 0.0 | 0.0 | 0.51 | 10.01 | 0.99 | 81 | ||
| 20260905081818 | 23 | 0.0 | 0.0 | 0.51 | 10.01 | 0.99 | 81 | ||
| 20260905080922 | 22 | 67 | 0.0 | 1.6 | 0.25 | 9.75 | 0.76 | 81 | |
| 20260905075821 | 22 | 0.0 | 0.0 | 0.51 | 9.75 | 0.76 | 82 | ||
| 20260905074648 | 22 | 63 | 0.0 | 1.6 | 0.25 | 9.50 | 0.51 | 81 | |
| 20260905073649 | 22 | 0.0 | 0.0 | 0.25 | 9.50 | 0.51 | 79 | ||
| 20260905072722 | 22 | 0.0 | 0.0 | 0.25 | 9.50 | 0.51 | 78 | ||
| 20260905072330 | 22 | 0.0 | 0.0 | 0.25 | 9.50 | 0.51 | 78 | ||
| 20260905070519 | 23 | 0.0 | 0.0 | 0.25 | 9.50 | 0.51 | 79 | ||
| 20260905065624 | 23 | 0.0 | 0.0 | 0.00 | 9.50 | 0.25 | 78 | ||
| 20260905064039 | 23 | 0.0 | 0.0 | 0.00 | 10.01 | 0.25 | 78 | ||
| 20260905063112 | 23 | 0.0 | 0.0 | 0.00 | 10.01 | 0.25 | 78 | ||
| 20260905062205 | 23 | 0.0 | 0.0 | 0.00 | 10.01 | 0.25 | 78 | ||
| 20260905061218 | 23 | 0.0 | 0.0 | 0.00 | 10.01 | 0.25 | 78 | ||
| 20260905055808 | 23 | 0.0 | 0.0 | 0.00 | 10.01 | 0.25 | 80 | ||
| 20260905054809 | 23 | 0.0 | 0.0 | 0.25 | 10.01 | 0.25 | 79 | ||
| 20260905053810 | 23 | 0.0 | 0.0 | 0.25 | 10.01 | 0.25 | 78 |